Airfield :
LOGIN :

Register | Disclaimer

   EN    FR    IT 

 










Legend :    VFR   Marginal VFR   IFR   Intensive IFR   Very Intensive IFR
Visi :
Ceiling :
>= 8 km
>= 3000ft
5 to 8 km
1000 to 3000 ft
1500m to 5 km
500 to 1000 ft
800 to 1500m
200 to 500 ft
< 800m
< 200 ft
Symbols :   Thunderstorms  Fog  Heavy snow  Heavy precipitations  Wind > 20 kt
SIGMETs :     Misc.  Thunderstorms  Icing  Turbulence  Mountain Waves  Volcanic Ashes







- Airport Elevation : 645 ft
- IATA code : DLE
- Download approach charts


LFGJ - Dole Tavaux

CURRENT METAR :
  • 231430Z AUTO 22015KT CAVOK 26/16 Q1016 TEMPO 26021G37KT 4000 RA FEW015 SCT025CB BKN030

EXPIRED METARs :
  • 231400Z AUTO 23017KT 9999 BKN048 OVC054 25/16 Q1017 TEMPO 26021G37KT 4000 RA FEW015 SCT025CB BKN030
  • 231330Z AUTO 22014KT 9999 OVC044 25/16 Q1017 TEMPO 26021G37KT 4000 RA FEW015 SCT025CB BKN030
  • 231300Z AUTO 22017KT 9999 BKN046 OVC052 25/17 Q1017 BECMG 22016G27KT
  • 231230Z AUTO 23017KT 9999 SCT038 OVC044 24/16 Q1017 BECMG 22016G27KT
  • 231200Z AUTO 22017KT 9999 BKN038 OVC050 24/16 Q1018 BECMG 22016G27KT

TAF TAF LFGJ
Valid from the 23 at 15:00 until the 24 at 00:00 UTC


231401Z 2315/2324 24016G27KT 9999 BKN040
TEMPO 2315/2319 26021G37KT 4000 RA FEW015 SCT025CB BKN030
BECMG 2319/2321 33015G25KT
BECMG 2321/2324 36008KT
No reported NOTAMs for that airfield.
3 SIGMETs reported for the Reims FIR (LFEE) :
 
Severe turbulence
LFEE SIGMET 3 VALID 231500/231900 LFPW
LFEE REIMS FIR/UIR SEV TURB FCST WI N4915 E00730 - N4900 E00815 - N4730 E00730 - N4745 E00615 - N4845 E00545 - N4915 E00730 SFC/FL050 STNR NC=
Severe turbulence
LFEE SIGMET 2 VALID 231200/231600 LFPW
LFEE REIMS FIR/UIR SEV TURB FCST WI N4900 E00500 - N4930 E00600 - N4915 E00730 - N4845 E00545 - N4900 E00500 SFC/FL050 STNR NC=
Severe turbulence
LFEE SIGMET 1 VALID 231100/231500 LFPW
LFEE REIMS FIR/UIR SEV TURB FCST WI N4900 E00815 - N4745 E00745 - N4745 E00630 - N4900 E00715 - N4900 E00815 SFC/FL050 STNR NC=



MET'MAP, your aeronautical weather chart ! - Copyright ORBIFLY December 2007 - Disclaimer

ORBIFLY MET'MAP TEAM :

Programming & Development : Alexandra Zaïnal
Concept & Development : Baudouin d'Aumeries
Co-Development & Prog : Marc-Olivier Méhu
Technical & hardware support : Manuel Goepfert

Contact : metmap@orbifly.com




SOURCES & CREDITS :

   NOAA